Dry Tortugas National Park, FL

11:19 AM EDT am 23. August 2014 (GMT -0400)
Dade County-Homestead Regional | Change Station
CLOSE
Current Station
Flughafen
Location: Homestead AFB,
Höhe: 7 ft
Wetterstationen in der Umgebung

Höhe 7 ft 25.49 °N, 80.38 °W | Updated 18 minutes ago

Light Drizzle
Leichtes Nieseln
88 °F
gefühlte 98 °F
N
10
Wind Wechselnd Wind aus Nordost

Heute
Max. -- | schwach -- °F
--% Regenrisiko
Gestern
Max. -- | schwach -- °F
Precip. -- inch
7:04 AM 7:53 PM
Letztes Viertel, 3% visible
Druck 29.97 inch
Sichtweite 9.0 Meilen
Wolken Few 20000 ft
Hitzeindex 98 °F
Taupunkt 75 °F
Feuchtigkeit 66%
Regen 0.00 inch
Schneehöhe Nicht verfügbar..
UV 10 von 12
Pollen 5.40 von 12
Luftqualität Nicht verfügbar..
Flu Activity Nicht verfügbar..
SPECI KHST 231501Z AUTO 05009KT 9SM -DZ FEW200 31/24 A2997 RMK AO2

More Conditions Fewer Conditions

Druck 29.97 inch
Sichtweite 9.0 Meilen
Wolken Few 20000 ft
Hitzeindex 98 °F
Taupunkt 75 °F
Feuchtigkeit 66%
Regen 0.00 inch
Schneehöhe Nicht verfügbar..
UV 10 von 12
Pollen 5.40 von 12
Luftqualität Nicht verfügbar..
Flu Activity Nicht verfügbar..
SPECI KHST 231501Z AUTO 05009KT 9SM -DZ FEW200 31/24 A2997 RMK AO2

More Conditions Fewer Conditions

10-Day Weather Forecast

Almanac

Astronomie

Aug. 23, 2014 Aufgang Untergang
Genaue Zeit 07:04 EDT 19:53 EDT
Bürgerliche Dämmerung 06:40 EDT 20:16 EDT
Nautische Dämmerung 06:13 EDT 20:44 EDT
Astronomische Dämmerung 05:44 EDT 21:12 EDT
Mond 05:23 EDT 18:35 EDT
Länge des sichtbaren Lichts 13h 36m
Tageslänge
12h 49m
Tomorrow will be 1m 19s shorter.
Letztes Viertel, 3% of the Moon is Illuminated
Heute
Letztes Viertel
Aug 25
Neu
Sept 2
Erstes Viertel
Sept 8
Vollmond
Sept 15
Letztes Viertel

Heutige Rekorde

State Highs State Lows

Community

WunderPhotos

Upload Photos

1,746,489 Fotos hochgeladen!

WunderBlogs® & News

By Dr. Jeff Masters
Director of Meteorology, Weather Underground
By Kari Strenfel
Meteorologist, Weather Underground
By Christopher C. Burt
Weather Historian, Weather Underground
August 23, 2014
August 23, 2014
August 23, 2014

Nearby

Schneehöhe

Station Depth Höhe
Kein Neuschnee gemeldet.

Erdbebenaktivität

Stadt Distance Mag. Time & Date
No recent earthquake activity has been reported nearby.
Minimum magnitude displayed is 2.5.

küstennahe Wassertemperaturen

Ort Temperatur
Key West, FL 88.0 °F
Vaca Key, FL 89.1 °F

Wetterstationen in der Umgebung